createdAt,value
2018-07-04T00:03:08.443Z,18.10
2018-07-04T00:06:13.141Z,18.00
2018-07-04T00:09:40.329Z,17.90
2018-07-04T00:12:45.446Z,17.90
2018-07-04T00:15:50.495Z,17.70
2018-07-04T00:18:55.270Z,18.10
2018-07-04T00:27:35.494Z,17.50
2018-07-04T00:30:40.547Z,17.50
2018-07-04T00:33:50.720Z,17.50
2018-07-04T00:36:55.961Z,17.50
2018-07-04T00:40:11.437Z,17.50
2018-07-04T00:43:36.688Z,17.40
2018-07-04T00:46:42.646Z,17.40
2018-07-04T00:49:48.964Z,17.30
2018-07-04T00:55:40.173Z,17.30
2018-07-04T01:01:51.444Z,17.30
2018-07-04T01:04:59.879Z,17.10
2018-07-04T01:08:11.431Z,17.00
2018-07-04T01:17:14.500Z,16.60
2018-07-04T01:20:31.869Z,16.60
2018-07-04T01:26:25.056Z,16.90
2018-07-04T01:29:31.168Z,16.80
2018-07-04T01:32:36.202Z,16.60
2018-07-04T01:35:41.325Z,16.60
2018-07-04T01:38:47.516Z,16.80
2018-07-04T01:41:52.705Z,16.50
2018-07-04T01:44:57.523Z,16.30
2018-07-04T01:48:02.605Z,16.30
2018-07-04T01:51:09.511Z,16.20
2018-07-04T01:54:14.551Z,16.10
2018-07-04T01:57:23.217Z,16.10
2018-07-04T02:00:29.730Z,16.10
2018-07-04T02:03:45.327Z,16.30
2018-07-04T02:06:53.643Z,16.10
2018-07-04T02:09:58.507Z,16.00
2018-07-04T02:18:39.409Z,15.60
2018-07-04T02:21:44.434Z,15.70
2018-07-04T02:24:50.606Z,15.60
2018-07-04T02:27:56.939Z,15.50
2018-07-04T02:31:03.663Z,15.40
2018-07-04T02:34:12.098Z,15.50
2018-07-04T02:40:17.512Z,15.40
2018-07-04T02:43:23.682Z,15.30
2018-07-04T02:46:41.232Z,15.20
2018-07-04T02:49:46.431Z,15.10
2018-07-04T02:52:52.868Z,15.20
2018-07-04T02:55:57.958Z,15.20
2018-07-04T02:59:02.880Z,15.20
2018-07-04T03:02:09.517Z,15.20
2018-07-04T03:08:04.320Z,15.10
2018-07-04T03:11:09.536Z,15.00
2018-07-04T03:14:14.691Z,14.90
2018-07-04T03:17:19.440Z,14.90
2018-07-04T03:20:24.354Z,14.90
2018-07-04T03:23:29.542Z,14.90
2018-07-04T03:29:24.569Z,15.00
2018-07-04T03:35:20.890Z,14.80
2018-07-04T03:38:41.057Z,14.70
2018-07-04T03:41:46.212Z,14.70
2018-07-04T03:44:52.532Z,14.70
2018-07-04T03:47:57.591Z,14.60
2018-07-04T03:51:03.829Z,14.60
2018-07-04T03:59:43.924Z,14.60
2018-07-04T04:05:35.559Z,14.60
2018-07-04T04:14:14.887Z,14.60
2018-07-04T04:17:21.002Z,14.70
2018-07-04T04:23:12.813Z,14.50
2018-07-04T04:26:17.761Z,14.50
2018-07-04T04:29:34.797Z,14.50
2018-07-04T04:35:26.173Z,14.50
2018-07-04T04:38:34.403Z,14.40
2018-07-04T04:41:39.944Z,14.50
2018-07-04T04:44:45.255Z,14.60
2018-07-04T04:47:51.921Z,14.70
2018-07-04T04:50:57.969Z,14.80
2018-07-04T04:54:03.156Z,14.90
2018-07-04T04:59:56.030Z,15.40
2018-07-04T05:03:02.239Z,15.20
2018-07-04T05:06:07.352Z,15.40
2018-07-04T05:11:58.197Z,15.20
2018-07-04T05:15:02.788Z,15.20
2018-07-04T05:18:07.704Z,15.30
2018-07-04T05:21:12.535Z,15.30
2018-07-04T05:24:17.909Z,15.40
2018-07-04T05:30:08.710Z,15.80
2018-07-04T05:33:13.422Z,15.80
2018-07-04T05:36:18.273Z,15.70
2018-07-04T05:39:24.113Z,15.70
2018-07-04T05:42:29.315Z,15.70
2018-07-04T05:45:34.630Z,16.10
2018-07-04T05:48:40.059Z,16.30
2018-07-04T05:51:46.305Z,16.10
2018-07-04T05:54:51.442Z,16.40
2018-07-04T05:57:56.403Z,16.60
2018-07-04T06:01:01.587Z,16.30
2018-07-04T06:12:26.774Z,16.20
2018-07-04T06:18:19.208Z,16.30
2018-07-04T06:21:23.985Z,16.30
2018-07-04T06:24:28.744Z,16.30
2018-07-04T06:27:33.813Z,16.40
2018-07-04T06:30:38.575Z,16.40
2018-07-04T06:33:43.388Z,16.50
2018-07-04T06:36:48.406Z,16.50
2018-07-04T06:41:43.348Z,16.60
2018-07-04T06:44:10.717Z,16.70
2018-07-04T06:46:38.081Z,16.70
2018-07-04T06:49:05.755Z,16.80
2018-07-04T06:51:33.058Z,16.80
2018-07-04T06:56:27.946Z,17.00
2018-07-04T06:58:55.290Z,17.00
2018-07-04T07:01:22.586Z,17.00
2018-07-04T07:04:27.945Z,17.40
2018-07-04T07:07:33.303Z,17.40
2018-07-04T07:10:38.211Z,17.30
2018-07-04T07:13:43.053Z,17.30
2018-07-04T07:16:49.011Z,17.30
2018-07-04T07:19:53.642Z,17.30
2018-07-04T07:22:58.656Z,17.40
2018-07-04T07:26:04.113Z,17.40
2018-07-04T07:29:09.915Z,17.50
2018-07-04T07:32:14.858Z,17.50
2018-07-04T07:35:19.636Z,17.60
2018-07-04T07:41:12.420Z,17.60
2018-07-04T07:44:18.476Z,17.60
2018-07-04T07:47:23.281Z,17.70
2018-07-04T07:50:28.154Z,17.70
2018-07-04T07:53:32.929Z,18.20
2018-07-04T07:56:38.176Z,18.10
2018-07-04T07:59:43.636Z,18.10
2018-07-04T08:02:48.411Z,18.10
2018-07-04T08:05:53.360Z,18.10
2018-07-04T08:09:00.961Z,18.50
2018-07-04T08:12:06.536Z,18.40
2018-07-04T08:15:12.862Z,18.40
2018-07-04T08:18:17.793Z,18.40
2018-07-04T08:24:11.242Z,18.50
2018-07-04T08:27:16.017Z,18.50
2018-07-04T08:30:21.225Z,18.50
2018-07-04T08:33:27.598Z,18.60
2018-07-04T08:36:32.849Z,18.60
2018-07-04T08:42:30.902Z,18.70
2018-07-04T08:45:36.121Z,18.80
2018-07-04T08:48:40.877Z,19.10
2018-07-04T08:51:45.814Z,19.30
2018-07-04T08:54:50.534Z,19.30
2018-07-04T08:57:56.124Z,19.50
2018-07-04T09:01:01.489Z,19.20
2018-07-04T09:06:52.955Z,19.00
2018-07-04T09:12:44.451Z,19.20
2018-07-04T09:15:50.245Z,19.10
2018-07-04T09:18:55.248Z,19.10
2018-07-04T09:22:01.104Z,19.40
2018-07-04T09:25:06.230Z,19.30
2018-07-04T09:28:11.893Z,19.30
2018-07-04T09:31:17.477Z,19.60
2018-07-04T09:34:23.433Z,19.50
2018-07-04T09:40:14.681Z,20.00
2018-07-04T09:46:05.747Z,19.50
2018-07-04T09:49:10.684Z,19.50
2018-07-04T09:52:15.746Z,19.60
2018-07-04T09:55:21.190Z,19.60
2018-07-04T09:58:26.178Z,19.60
2018-07-04T10:01:30.943Z,19.70
2018-07-04T10:04:35.973Z,19.70
2018-07-04T10:07:40.924Z,19.80
2018-07-04T10:10:45.719Z,19.80
2018-07-04T10:19:24.770Z,19.90
2018-07-04T10:25:16.494Z,20.10
2018-07-04T10:28:21.147Z,20.10
2018-07-04T10:31:25.968Z,20.20
2018-07-04T10:34:41.712Z,20.60
2018-07-04T10:40:33.298Z,20.50
2018-07-04T10:43:38.323Z,20.50
2018-07-04T10:46:43.312Z,20.50
2018-07-04T10:49:48.862Z,21.00
2018-07-04T10:52:54.019Z,20.80
2018-07-04T10:56:00.810Z,20.80
2018-07-04T10:59:05.952Z,20.80
2018-07-04T11:07:44.306Z,21.00
2018-07-04T11:19:10.009Z,21.20
2018-07-04T11:22:14.812Z,21.20
2018-07-04T11:25:19.749Z,21.30
2018-07-04T11:28:24.627Z,21.80
2018-07-04T11:31:29.497Z,21.70
2018-07-04T11:34:34.379Z,21.70
2018-07-04T11:37:39.692Z,22.10
2018-07-04T11:43:31.557Z,21.90
2018-07-04T11:45:59.864Z,21.90
2018-07-04T11:48:30.247Z,22.30
2018-07-04T11:50:58.468Z,22.20
2018-07-04T11:53:28.758Z,22.20
2018-07-04T11:55:56.079Z,22.20
2018-07-04T11:58:25.239Z,22.30
2018-07-04T12:00:52.536Z,22.30
2018-07-04T12:03:21.110Z,22.40
2018-07-04T12:06:26.737Z,22.80
2018-07-04T12:13:49.702Z,22.80
2018-07-04T12:16:17.006Z,22.90
2018-07-04T12:18:44.289Z,22.90
2018-07-04T12:21:11.641Z,23.00
2018-07-04T12:23:39.724Z,23.20
2018-07-04T12:26:07.081Z,23.30
2018-07-04T12:28:34.512Z,23.40
2018-07-04T12:33:29.749Z,23.60
2018-07-04T12:38:25.273Z,27.20
2018-07-04T12:40:52.569Z,30.40
2018-07-04T12:43:19.961Z,32.80
2018-07-04T12:48:18.618Z,36.10
2018-07-04T12:50:46.365Z,36.50
2018-07-04T12:53:13.743Z,36.50
2018-07-04T12:56:18.790Z,37.30
2018-07-04T13:02:10.211Z,38.70
2018-07-04T13:05:16.014Z,39.00
2018-07-04T13:19:28.228Z,41.00
2018-07-04T13:28:08.869Z,41.70
2018-07-04T13:31:14.059Z,43.80
2018-07-04T13:37:08.085Z,45.10
2018-07-04T13:40:15.758Z,44.70
2018-07-04T13:43:22.028Z,44.40
2018-07-04T13:46:26.997Z,45.60
2018-07-04T13:49:32.751Z,45.70
2018-07-04T13:52:38.047Z,45.80
2018-07-04T13:55:44.527Z,46.10
2018-07-04T13:58:49.315Z,46.60
2018-07-04T14:01:54.319Z,47.50
2018-07-04T14:05:00.658Z,48.50
2018-07-04T14:08:05.628Z,48.30
2018-07-04T14:11:10.552Z,48.60
2018-07-04T14:14:15.538Z,48.30
2018-07-04T14:17:23.686Z,48.40
2018-07-04T14:23:15.073Z,50.50
2018-07-04T14:26:21.295Z,49.10
2018-07-04T14:29:26.054Z,49.10
2018-07-04T14:32:30.915Z,50.80
2018-07-04T14:35:35.663Z,50.20
2018-07-04T14:38:42.150Z,51.40
2018-07-04T14:44:34.566Z,49.70
2018-07-04T14:47:39.405Z,49.30
2018-07-04T14:50:45.724Z,49.50
2018-07-04T14:56:39.427Z,49.90
2018-07-04T15:02:40.756Z,48.70
2018-07-04T15:05:45.629Z,48.60
2018-07-04T15:17:10.303Z,48.60
2018-07-04T15:20:15.351Z,48.00
2018-07-04T15:23:22.092Z,47.70
2018-07-04T15:26:27.087Z,47.60
2018-07-04T15:29:32.729Z,47.40
2018-07-04T15:32:37.565Z,48.50
2018-07-04T15:35:42.464Z,47.80
2018-07-04T15:38:50.368Z,47.30
2018-07-04T15:44:41.206Z,47.30
2018-07-04T15:47:46.816Z,46.10
2018-07-04T15:50:51.968Z,44.20
2018-07-04T15:53:56.671Z,43.60
2018-07-04T15:57:01.360Z,43.50
2018-07-04T16:00:06.189Z,44.20
2018-07-04T16:03:11.517Z,43.80
2018-07-04T16:09:03.155Z,43.60
2018-07-04T16:14:55.254Z,43.10
2018-07-04T16:18:00.558Z,43.20
2018-07-04T16:23:51.564Z,43.40
2018-07-04T16:26:57.040Z,43.30
2018-07-04T16:32:48.166Z,43.50
2018-07-04T16:35:53.398Z,42.60
2018-07-04T16:38:57.994Z,42.10
2018-07-04T16:42:03.034Z,41.90
2018-07-04T16:45:07.661Z,41.40
2018-07-04T16:48:13.859Z,41.40
2018-07-04T16:51:20.266Z,41.40
2018-07-04T16:54:37.160Z,41.30
2018-07-04T17:00:28.529Z,40.60
2018-07-04T17:03:33.704Z,40.40
2018-07-04T17:06:38.535Z,40.10
2018-07-04T17:09:43.770Z,40.50
2018-07-04T17:12:48.449Z,40.00
2018-07-04T17:21:26.074Z,38.90
2018-07-04T17:24:31.056Z,38.50
2018-07-04T17:27:35.904Z,38.20
2018-07-04T17:30:40.881Z,38.00
2018-07-04T17:33:45.911Z,37.70
2018-07-04T17:36:51.975Z,37.30
2018-07-04T17:39:57.114Z,36.80
2018-07-04T17:43:02.273Z,36.50
2018-07-04T17:46:07.105Z,36.30
2018-07-04T17:57:30.645Z,35.80
2018-07-04T18:06:08.781Z,34.90
2018-07-04T18:09:13.629Z,34.90
2018-07-04T18:15:06.099Z,34.30
2018-07-04T18:23:43.430Z,33.30
2018-07-04T18:29:34.444Z,32.80
2018-07-04T18:43:45.793Z,31.70
2018-07-04T18:46:51.137Z,31.50
2018-07-04T18:49:56.021Z,31.20
2018-07-04T18:53:00.593Z,30.90
2018-07-04T18:56:05.332Z,30.70
2018-07-04T18:59:10.524Z,30.40
2018-07-04T19:02:15.298Z,30.10
2018-07-04T19:05:20.366Z,29.90
2018-07-04T19:11:11.688Z,29.60
2018-07-04T19:14:18.946Z,29.30
2018-07-04T19:17:23.980Z,29.20
2018-07-04T19:20:29.084Z,29.10
2018-07-04T19:26:21.724Z,28.70
2018-07-04T19:29:29.866Z,28.50
2018-07-04T19:35:21.663Z,28.30
2018-07-04T19:38:27.187Z,28.00
2018-07-04T19:41:32.014Z,27.90
2018-07-04T19:44:36.930Z,27.60
2018-07-04T19:47:41.901Z,27.50
2018-07-04T19:50:47.199Z,27.20
2018-07-04T19:59:27.669Z,26.60
2018-07-04T20:05:16.971Z,26.50
2018-07-04T20:08:21.914Z,26.50
2018-07-04T20:11:33.045Z,26.40
2018-07-04T20:14:37.868Z,26.20
2018-07-04T20:17:42.580Z,26.10
2018-07-04T20:23:36.811Z,25.70
2018-07-04T20:26:42.290Z,25.60
2018-07-04T20:29:47.643Z,25.90
2018-07-04T20:32:52.446Z,25.60
2018-07-04T20:35:57.420Z,25.30
2018-07-04T20:39:02.448Z,25.40
2018-07-04T20:42:07.368Z,25.10
2018-07-04T20:47:58.801Z,25.20
2018-07-04T20:51:03.394Z,24.80
2018-07-04T20:54:08.305Z,24.50
2018-07-04T20:57:13.340Z,24.40
2018-07-04T21:00:17.989Z,24.20
2018-07-04T21:03:24.165Z,24.00
2018-07-04T21:09:15.398Z,24.20
2018-07-04T21:15:06.722Z,23.70
2018-07-04T21:18:11.768Z,23.50
2018-07-04T21:24:04.274Z,23.40
2018-07-04T21:27:09.388Z,23.30
2018-07-04T21:38:32.951Z,23.20
2018-07-04T21:41:37.716Z,22.90
2018-07-04T21:44:42.612Z,22.70
2018-07-04T21:47:48.824Z,22.60
2018-07-04T21:50:53.788Z,22.90
2018-07-04T21:56:44.821Z,22.30
2018-07-04T21:59:50.945Z,22.20
2018-07-04T22:02:56.466Z,22.00
2018-07-04T22:08:49.100Z,22.00
2018-07-04T22:11:54.146Z,21.80
2018-07-04T22:17:46.328Z,21.70
2018-07-04T22:20:51.522Z,21.60
2018-07-04T22:29:29.319Z,21.50
2018-07-04T22:32:36.110Z,21.50
2018-07-04T22:35:39.118Z,21.40
2018-07-04T22:38:45.483Z,21.30
2018-07-04T22:41:50.495Z,21.30
2018-07-04T22:44:55.320Z,21.20
2018-07-04T22:48:00.063Z,21.10
2018-07-04T22:51:05.907Z,21.00
2018-07-04T22:54:11.928Z,20.90
2018-07-04T22:57:16.818Z,20.80
2018-07-04T23:00:21.570Z,20.80
2018-07-04T23:03:26.776Z,20.70
2018-07-04T23:06:31.407Z,20.60
2018-07-04T23:09:36.389Z,20.50
2018-07-04T23:12:41.436Z,20.50
2018-07-04T23:15:46.422Z,20.40
2018-07-04T23:18:51.109Z,20.70
2018-07-04T23:21:55.864Z,20.50
2018-07-04T23:27:47.268Z,20.20
2018-07-04T23:30:52.354Z,20.10
2018-07-04T23:33:57.231Z,20.10
2018-07-04T23:37:01.911Z,20.00
2018-07-04T23:40:06.776Z,20.00
2018-07-04T23:43:11.952Z,20.30
2018-07-04T23:46:16.748Z,20.10
2018-07-04T23:49:21.648Z,19.90
2018-07-04T23:55:14.150Z,19.90
2018-07-04T23:58:18.806Z,19.80
